• Join FlightAware (Why Join?)
  • Login
  • US Flag 
10:34PM EDT


 

Airport Tracker/Info


-or-


 

Live Flight TrackerFlight Track Log ✈ UCA5001 ✈ 08-May-2013 ✈ KIAD - KROA

Flight Track Log - Related Links

Times and Time Zones

All times are in EDT time to prevent confusion due to time zone crossing. See the UCA5001 flight status page for this flight to view local times or setup timezone preferences in your user account.

Time Position Orientation Groundspeed Altitude Reporting Facility
EDT Latitude Longitude Course Direction KTS MPH feet Rate Location/Type
03:44PM 38.9500 -77.5500 223° Southwest 170 196 2,800  Level Potomac TRACON
03:45PM 38.9500 -77.6167 270° West 182 209 4,000 900 Climbing Potomac TRACON
03:46PM 38.9167 -77.6667 229° Southwest 214 246 4,600 780 Climbing Potomac TRACON
03:47PM 38.8667 -77.7000 207° Southwest 220 253 5,500 1,260 Climbing Potomac TRACON
03:48PM 38.8167 -77.7333 207° Southwest 195 224 7,200 1,380 Climbing Potomac TRACON
03:49PM 38.7716 -77.6784 218° Southwest  Level FlightAware Approximate
03:49PM 38.8022 -77.7547 229° Southwest 197 227 7,500  Level Washington Center
03:50PM 38.7298 -77.7376 223° Southwest  Level FlightAware Approximate
03:50PM 38.7536 -77.7906 210° Southwest 197 227 8,900  Level Washington Center
03:51PM 38.7050 -77.8264 210° Southwest 202 232 10,300 1,320 Climbing Washington Center
03:52PM 38.6608 -77.8542 206° Southwest 202 232 11,700 1,380 Climbing Washington Center
03:53PM 38.6181 -77.9008 220° Southwest 207 238 13,100 1,140 Climbing Washington Center
03:54PM 38.5836 -77.9633 235° Southwest 207 238 14,000 420 Climbing Washington Center
03:55PM 38.5447 -78.0339 235° Southwest 225 259 14,000  Level Washington Center
03:56PM 38.5014 -78.1067 233° Southwest 250 288 14,000  Level Washington Center
03:57PM 38.4581 -78.1794 233° Southwest 257 296 14,000  Level Washington Center
03:58PM 38.4128 -78.2547 233° Southwest 262 302 14,000  Level Washington Center
03:59PM 38.3694 -78.3272 233° Southwest 262 302 14,000  Level Washington Center
04:00PM 38.3303 -78.3972 235° Southwest 262 302 14,000  Level Washington Center
04:01PM 38.2847 -78.4697 231° Southwest 262 302 14,000  Level Washington Center
04:02PM 38.2478 -78.5292 232° Southwest 257 296 14,000 -1,560 Level Washington Center
04:03PM 38.2064 -78.6067 236° Southwest 257 296 11,000 -480 Descending Washington Center
04:04PM 38.1561 -78.6892 232° Southwest 262 302 13,100  Climbing Washington Center
04:06PM 38.0625 -78.8436 232° Southwest 278 320 11,000 -720 Descending Washington Center
04:07PM 38.0186 -78.9208 234° Southwest 278 320 11,000  Level Washington Center
04:08PM 37.9794 -78.9850 232° Southwest 273 314 11,000  Level Washington Center
04:09PM 37.9356 -79.0542 231° Southwest 268 308 11,000  Level Washington Center
04:10PM 37.8919 -79.1258 232° Southwest 268 308 11,000  Level Washington Center
04:11PM 37.8414 -79.2050 231° Southwest 268 308 11,000  Level Washington Center
04:12PM 37.7956 -79.2711 229° Southwest 268 308 11,000  Level Washington Center
04:13PM 37.7497 -79.3422 231° Southwest 268 308 11,000 -60 Level Washington Center
04:14PM 37.7017 -79.4083 227° Southwest 268 308 10,900 -60 Descending Washington Center
04:15PM 37.6622 -79.4719 232° Southwest 268 308 10,900 -300 Level Washington Center
04:16PM 37.6094 -79.5503 230° Southwest 268 308 10,400 -960 Descending Washington Center
04:18PM 37.5150 -79.6919 230° Southwest 268 308 8,100 -840 Descending Washington Center
04:19PM 37.4794 -79.7531 234° Southwest 262 302 8,000 -60 Descending Washington Center
04:20PM 37.4431 -79.8372 241° Southwest 249 287 8,000  Level Washington Center
04:21PM 37.4156 -79.9064 243° Southwest 249 287 8,000  Level Washington Center
04:22PM 37.3817 -79.9803 240° Southwest 249 287 8,000  Level Washington Center
04:23PM 37.3497 -80.0569 242° Southwest 249 287 8,000 -600 Level Washington Center
04:24PM 37.3133 -80.1383 241° Southwest 249 287 6,800 -1,200 Descending Washington Center